Time;durP1;ratioP1;P1;durP2;ratioP2;P2;SDS_P1;SDS_P2;PMS_P1;PMS_P2;Temp;Humidity;BMP_temperature;BMP_pressure;BME280_temperature;BME280_humidity;BME280_pressure;Samples;Min_cycle;Max_cycle;Signal;HPM_P1;HPM_P2
2023/08/26 00:00:37;;;;;;;8.60;6.87;;;20.40;99.90;;;;;;485107;244;29152;-74
2023/08/26 00:02:38;;;;;;;7.80;6.20;;;20.40;99.90;;;;;;485095;243;28724;-73
2023/08/26 00:04:39;;;;;;;10.20;7.53;;;20.30;99.90;;;;;;485106;244;28707;-74
2023/08/26 00:06:41;;;;;;;11.17;8.13;;;20.30;99.90;;;;;;485107;244;28723;-74
2023/08/26 00:08:42;;;;;;;7.43;6.67;;;20.30;99.90;;;;;;485105;244;28782;-75
2023/08/26 00:10:44;;;;;;;11.33;7.30;;;20.20;99.90;;;;;;485124;244;28733;-74
2023/08/26 00:12:45;;;;;;;9.03;6.83;;;20.30;99.90;;;;;;485099;243;29635;-78
2023/08/26 00:14:47;;;;;;;11.23;6.70;;;20.20;99.90;;;;;;485116;244;28831;-74
2023/08/26 00:16:48;;;;;;;8.47;6.53;;;20.20;99.90;;;;;;485109;244;28719;-74
2023/08/26 00:18:49;;;;;;;11.73;7.90;;;20.20;99.90;;;;;;485106;244;28717;-74
2023/08/26 00:20:52;;;;;;;9.60;6.27;;;20.20;99.90;;;;;;485084;244;28804;-74
2023/08/26 00:22:52;;;;;;;13.47;6.97;;;20.10;99.90;;;;;;485066;244;28782;-74
2023/08/26 00:24:53;;;;;;;13.20;8.00;;;20.10;99.90;;;;;;485099;244;28723;-74
2023/08/26 00:26:54;;;;;;;9.30;6.57;;;20.10;99.90;;;;;;485099;244;28802;-74
2023/08/26 00:28:56;;;;;;;11.50;8.27;;;20.10;99.90;;;;;;485069;244;29189;-74
2023/08/26 00:30:57;;;;;;;13.97;7.53;;;20.10;99.90;;;;;;485100;244;29168;-75
2023/08/26 00:32:59;;;;;;;10.60;7.70;;;20.00;99.90;;;;;;485000;245;29190;-77
2023/08/26 00:34:59;;;;;;;10.40;7.50;;;20.10;99.90;;;;;;485055;245;28834;-74
2023/08/26 00:37:00;;;;;;;6.73;6.00;;;20.00;99.90;;;;;;484996;245;28813;-74
2023/08/26 00:39:02;;;;;;;10.37;6.60;;;20.00;99.90;;;;;;484992;244;28790;-74
2023/08/26 00:41:03;;;;;;;10.57;7.17;;;20.00;99.90;;;;;;485066;244;28778;-74
2023/08/26 00:43:04;;;;;;;11.23;6.53;;;20.00;99.90;;;;;;485053;243;28701;-74
2023/08/26 00:45:06;;;;;;;9.83;7.60;;;20.00;99.90;;;;;;485112;243;28719;-74
2023/08/26 00:47:07;;;;;;;8.90;6.57;;;19.90;99.90;;;;;;485081;244;28801;-75
2023/08/26 00:49:08;;;;;;;12.20;7.23;;;20.00;99.90;;;;;;485103;244;29195;-75
2023/08/26 00:51:09;;;;;;;12.93;8.03;;;19.90;99.90;;;;;;485098;244;29158;-74
2023/08/26 00:53:11;;;;;;;8.23;7.07;;;19.80;99.90;;;;;;485103;244;29299;-76
2023/08/26 00:55:12;;;;;;;9.60;7.00;;;19.80;99.90;;;;;;485105;243;28737;-75
2023/08/26 00:57:13;;;;;;;13.33;7.33;;;19.70;99.90;;;;;;485105;244;28704;-75
2023/08/26 00:59:14;;;;;;;12.30;8.00;;;19.60;99.90;;;;;;485099;244;28782;-75
2023/08/26 01:01:16;;;;;;;10.70;7.30;;;19.60;99.90;;;;;;485108;244;28719;-75
2023/08/26 01:03:17;;;;;;;7.93;6.73;;;19.50;99.90;;;;;;485101;244;28710;-75
2023/08/26 01:05:18;;;;;;;9.43;6.60;;;19.50;99.90;;;;;;485098;243;28704;-75
2023/08/26 01:07:19;;;;;;;11.37;7.90;;;19.40;99.90;;;;;;485105;244;28812;-74
2023/08/26 01:09:21;;;;;;;12.00;8.00;;;19.50;99.90;;;;;;485097;244;29194;-74
2023/08/26 01:11:22;;;;;;;13.50;8.07;;;19.40;99.90;;;;;;485098;244;29164;-76
2023/08/26 01:13:23;;;;;;;10.03;7.10;;;19.40;99.90;;;;;;485116;244;29185;-75
2023/08/26 01:15:24;;;;;;;10.10;7.00;;;19.50;99.90;;;;;;485114;244;28713;-75
2023/08/26 01:17:26;;;;;;;7.73;6.90;;;19.50;99.90;;;;;;485116;244;28716;-74
2023/08/26 01:19:27;;;;;;;9.13;6.83;;;19.40;99.90;;;;;;485098;244;28803;-75
2023/08/26 01:21:28;;;;;;;13.07;7.40;;;19.40;99.90;;;;;;485080;244;28701;-75
2023/08/26 01:23:29;;;;;;;10.03;6.77;;;19.40;99.90;;;;;;485109;244;28728;-74
2023/08/26 01:25:31;;;;;;;10.47;7.30;;;19.30;99.90;;;;;;485098;244;28767;-75
2023/08/26 01:27:32;;;;;;;10.87;6.77;;;19.30;99.90;;;;;;485094;243;28742;-76
2023/08/26 01:29:33;;;;;;;8.90;6.53;;;19.30;99.90;;;;;;485092;244;29253;-74
2023/08/26 01:31:34;;;;;;;12.30;7.70;;;19.30;99.90;;;;;;485096;244;29261;-74
2023/08/26 01:33:36;;;;;;;9.13;6.93;;;19.30;99.90;;;;;;485102;244;29166;-74
2023/08/26 01:35:40;;;;;;;9.90;6.03;;;19.30;99.90;;;;;;485093;244;28781;-74
2023/08/26 01:37:38;;;;;;;9.67;6.70;;;19.30;99.90;;;;;;484968;244;28720;-76
2023/08/26 01:39:40;;;;;;;9.57;6.30;;;19.30;99.90;;;;;;485086;243;28775;-76
2023/08/26 01:41:42;;;;;;;8.23;6.10;;;19.20;99.90;;;;;;485109;244;28701;-75
2023/08/26 01:43:42;;;;;;;6.03;5.43;;;19.30;99.90;;;;;;485018;244;28790;-75
2023/08/26 01:45:43;;;;;;;11.27;6.60;;;19.20;99.90;;;;;;485106;244;28702;-74
2023/08/26 01:47:44;;;;;;;9.50;6.37;;;19.20;99.90;;;;;;485096;244;28718;-74
2023/08/26 01:49:46;;;;;;;8.60;6.10;;;19.20;99.90;;;;;;485099;244;28735;-74
2023/08/26 01:51:47;;;;;;;10.13;6.33;;;19.20;99.90;;;;;;485098;243;29158;-75
2023/08/26 01:53:48;;;;;;;8.03;5.77;;;19.20;99.90;;;;;;485089;244;29350;-75
2023/08/26 01:55:49;;;;;;;8.93;6.43;;;19.20;99.90;;;;;;485098;244;28793;-74
2023/08/26 01:57:51;;;;;;;9.90;5.97;;;19.10;99.90;;;;;;485092;244;28777;-75
2023/08/26 01:59:52;;;;;;;6.40;5.63;;;19.00;99.90;;;;;;485090;239;28710;-75
2023/08/26 02:01:53;;;;;;;11.67;6.23;;;19.00;99.90;;;;;;485102;244;28699;-75
2023/08/26 02:03:54;;;;;;;7.40;6.23;;;19.00;99.90;;;;;;485093;243;28704;-76
2023/08/26 02:05:56;;;;;;;11.60;6.10;;;18.90;99.90;;;;;;485109;244;28703;-76
2023/08/26 02:07:57;;;;;;;6.70;5.30;;;18.90;99.90;;;;;;485104;243;28800;-74
2023/08/26 02:09:58;;;;;;;9.90;6.93;;;18.90;99.90;;;;;;485052;245;28766;-76
2023/08/26 02:11:59;;;;;;;9.77;5.87;;;18.90;99.90;;;;;;485104;244;29176;-72
2023/08/26 02:14:01;;;;;;;12.90;6.43;;;19.00;99.90;;;;;;485047;244;29178;-77
2023/08/26 02:16:02;;;;;;;8.60;5.93;;;19.00;99.90;;;;;;485094;245;29190;-74
2023/08/26 02:18:04;;;;;;;7.80;5.73;;;18.90;99.90;;;;;;485097;244;28722;-75
2023/08/26 02:20:05;;;;;;;7.80;5.50;;;19.00;99.90;;;;;;485085;244;28719;-76
2023/08/26 02:22:08;;;;;;;10.47;5.70;;;19.00;99.90;;;;;;485071;244;28785;-75
2023/08/26 02:24:08;;;;;;;7.70;5.40;;;19.00;99.90;;;;;;485035;245;28792;-75
2023/08/26 02:26:09;;;;;;;9.63;6.80;;;19.00;99.90;;;;;;485079;243;28742;-74
2023/08/26 02:28:10;;;;;;;9.20;5.80;;;19.00;99.90;;;;;;485078;243;29269;-73
2023/08/26 02:30:12;;;;;;;10.33;5.63;;;19.00;99.90;;;;;;485094;244;29169;-72
2023/08/26 02:32:13;;;;;;;7.97;6.10;;;18.90;99.90;;;;;;485109;244;29189;-74
2023/08/26 02:34:14;;;;;;;8.73;5.77;;;18.90;99.90;;;;;;485086;244;28707;-75
2023/08/26 02:36:15;;;;;;;6.10;5.03;;;18.90;99.90;;;;;;485102;244;28787;-74
2023/08/26 02:38:17;;;;;;;6.60;5.70;;;19.00;99.90;;;;;;485091;244;28696;-73
2023/08/26 02:40:18;;;;;;;13.70;5.50;;;18.90;99.90;;;;;;485072;244;28716;-74
2023/08/26 02:42:19;;;;;;;7.77;5.77;;;18.90;99.90;;;;;;485151;244;28722;-76
2023/08/26 02:44:20;;;;;;;8.20;5.80;;;18.90;99.90;;;;;;485098;244;28717;-74
2023/08/26 02:46:22;;;;;;;8.53;6.00;;;18.90;99.90;;;;;;485077;244;28723;-75
2023/08/26 02:48:23;;;;;;;8.90;5.70;;;18.90;99.90;;;;;;485094;244;28725;-74
2023/08/26 02:50:24;;;;;;;6.60;4.83;;;18.80;99.90;;;;;;485017;244;29310;-74
2023/08/26 02:52:26;;;;;;;7.30;6.60;;;18.80;99.90;;;;;;485092;244;29224;-73
2023/08/26 02:54:28;;;;;;;10.60;6.20;;;18.80;99.90;;;;;;485094;243;28807;-74
2023/08/26 02:56:29;;;;;;;8.30;5.87;;;18.70;99.90;;;;;;485086;244;28821;-74
2023/08/26 02:58:30;;;;;;;7.00;6.03;;;18.60;99.90;;;;;;485084;243;28836;-74
2023/08/26 03:00:33;;;;;;;7.30;5.97;;;18.60;99.90;;;;;;485388;242;29186;-74
2023/08/26 03:02:33;;;;;;;10.13;6.07;;;18.50;99.90;;;;;;485031;245;29200;-76
2023/08/26 03:04:34;;;;;;;11.00;6.03;;;18.50;99.90;;;;;;485091;243;29198;-76
2023/08/26 03:06:35;;;;;;;7.37;5.70;;;18.50;99.90;;;;;;485103;244;28794;-74
2023/08/26 03:08:36;;;;;;;8.60;5.70;;;18.40;99.90;;;;;;485094;244;28734;-75
2023/08/26 03:10:38;;;;;;;10.60;6.03;;;18.40;99.90;;;;;;485099;244;28805;-75
2023/08/26 03:12:39;;;;;;;9.17;5.07;;;18.30;99.90;;;;;;485087;244;28721;-74
2023/08/26 03:14:40;;;;;;;5.07;4.57;;;18.30;99.90;;;;;;485095;244;28723;-75
2023/08/26 03:16:41;;;;;;;9.80;5.33;;;18.30;99.90;;;;;;485093;244;28756;-74
2023/08/26 03:18:43;;;;;;;8.70;5.03;;;18.30;99.90;;;;;;485087;244;28815;-76
2023/08/26 03:20:44;;;;;;;6.20;4.40;;;18.30;99.90;;;;;;485075;244;28747;-74
2023/08/26 03:22:45;;;;;;;6.10;4.37;;;18.20;99.90;;;;;;485090;244;29205;-74
2023/08/26 03:24:46;;;;;;;14.03;5.30;;;18.20;99.90;;;;;;485086;244;29284;-75
2023/08/26 03:26:48;;;;;;;4.93;4.13;;;18.20;99.90;;;;;;485087;244;29304;-75
2023/08/26 03:28:49;;;;;;;5.17;4.60;;;18.10;99.90;;;;;;485081;244;28733;-74
2023/08/26 03:30:50;;;;;;;8.57;4.40;;;18.20;99.90;;;;;;485096;244;28733;-75
2023/08/26 03:32:51;;;;;;;5.60;4.27;;;18.20;99.90;;;;;;485092;244;28728;-75
2023/08/26 03:34:53;;;;;;;7.17;4.20;;;18.20;99.90;;;;;;485139;244;28724;-72
2023/08/26 03:36:54;;;;;;;8.13;4.57;;;18.20;99.90;;;;;;485121;244;28787;-73
2023/08/26 03:38:55;;;;;;;4.93;3.93;;;18.10;99.90;;;;;;485081;244;28794;-73
2023/08/26 03:40:56;;;;;;;5.37;4.27;;;18.10;99.90;;;;;;485091;244;28721;-73
2023/08/26 03:43:00;;;;;;;4.93;3.80;;;18.10;99.90;;;;;;485069;244;28725;-74
2023/08/26 03:44:59;;;;;;;4.53;3.43;;;18.00;99.90;;;;;;484991;245;29210;-76
2023/08/26 03:47:00;;;;;;;4.47;3.80;;;17.90;99.90;;;;;;485082;244;29302;-75
2023/08/26 03:49:02;;;;;;;4.33;3.37;;;17.90;99.90;;;;;;485099;244;29263;-75
2023/08/26 03:51:03;;;;;;;5.43;3.63;;;17.80;99.90;;;;;;485052;244;29279;-76
2023/08/26 03:53:04;;;;;;;4.13;3.40;;;17.70;99.90;;;;;;485050;243;28701;-73
2023/08/26 03:55:05;;;;;;;5.03;3.77;;;17.70;99.90;;;;;;485106;244;28797;-75
2023/08/26 03:57:07;;;;;;;5.50;3.70;;;17.60;99.90;;;;;;485112;243;28811;-75
2023/08/26 03:59:09;;;;;;;3.90;3.20;;;17.60;99.90;;;;;;485115;243;28717;-75
2023/08/26 04:01:10;;;;;;;10.63;4.37;;;17.60;99.90;;;;;;485091;243;28718;-74
2023/08/26 04:03:11;;;;;;;5.33;3.80;;;17.50;99.90;;;;;;485100;242;28714;-74
2023/08/26 04:05:12;;;;;;;4.63;3.20;;;17.50;99.90;;;;;;485111;244;28726;-74
2023/08/26 04:07:14;;;;;;;6.20;3.80;;;17.50;99.90;;;;;;485100;244;28729;-75
2023/08/26 04:09:15;;;;;;;5.73;3.97;;;17.40;99.90;;;;;;485041;245;29208;-75
2023/08/26 04:11:17;;;;;;;6.67;3.17;;;17.30;99.90;;;;;;485100;244;29233;-74
2023/08/26 04:13:17;;;;;;;5.93;3.40;;;17.30;99.90;;;;;;485069;244;29199;-74
2023/08/26 04:15:19;;;;;;;7.03;3.50;;;17.30;99.90;;;;;;485100;244;28800;-74
2023/08/26 04:17:20;;;;;;;5.67;3.43;;;17.30;99.90;;;;;;485110;244;28722;-74
2023/08/26 04:19:21;;;;;;;5.53;3.57;;;17.30;99.90;;;;;;485115;244;28727;-75
2023/08/26 04:21:22;;;;;;;6.17;3.83;;;17.30;99.90;;;;;;485088;244;28761;-74
2023/08/26 04:23:24;;;;;;;3.50;3.13;;;17.30;99.90;;;;;;485117;244;28811;-74
2023/08/26 04:25:26;;;;;;;8.43;4.00;;;17.30;99.90;;;;;;485114;244;28726;-73
2023/08/26 04:27:27;;;;;;;4.80;3.70;;;17.30;99.90;;;;;;485053;243;28730;-75
2023/08/26 04:29:27;;;;;;;4.87;3.10;;;17.30;99.90;;;;;;485074;244;28726;-75
2023/08/26 04:31:29;;;;;;;5.17;3.23;;;17.30;99.90;;;;;;485095;244;28729;-76
2023/08/26 04:33:30;;;;;;;7.47;3.53;;;17.20;99.90;;;;;;485085;244;29281;-72
2023/08/26 04:35:31;;;;;;;5.50;3.43;;;17.10;99.90;;;;;;485097;244;29186;-73
2023/08/26 04:37:32;;;;;;;7.17;3.03;;;17.00;99.90;;;;;;485104;244;29196;-72
2023/08/26 04:39:34;;;;;;;4.23;3.23;;;17.00;99.90;;;;;;485081;243;29188;-73
2023/08/26 04:41:35;;;;;;;4.30;3.17;;;17.10;99.90;;;;;;485105;244;28706;-73
2023/08/26 04:43:36;;;;;;;4.57;3.10;;;17.10;99.90;;;;;;485115;244;28734;-72
2023/08/26 04:45:39;;;;;;;8.10;3.00;;;17.10;99.90;;;;;;485108;244;28733;-73
2023/08/26 04:47:40;;;;;;;6.97;3.27;;;17.10;99.90;;;;;;485080;243;28728;-75
2023/08/26 04:49:41;;;;;;;3.73;3.07;;;17.10;99.90;;;;;;485115;244;28707;-74
2023/08/26 04:51:42;;;;;;;5.00;2.93;;;17.10;99.90;;;;;;485110;244;28803;-75
2023/08/26 04:53:43;;;;;;;9.43;3.00;;;17.10;99.90;;;;;;485163;244;28721;-76
2023/08/26 04:55:45;;;;;;;4.53;3.17;;;17.10;99.90;;;;;;485101;243;28738;-75
2023/08/26 04:57:46;;;;;;;4.60;3.10;;;17.10;99.90;;;;;;485123;244;28722;-73
2023/08/26 04:59:47;;;;;;;3.70;3.13;;;17.10;99.90;;;;;;485119;243;28713;-74
2023/08/26 05:01:48;;;;;;;2.83;2.63;;;17.10;99.90;;;;;;485075;243;29183;-74
2023/08/26 05:03:50;;;;;;;3.83;2.90;;;17.10;99.90;;;;;;485120;244;29193;-72
2023/08/26 05:05:51;;;;;;;3.80;2.83;;;17.20;99.90;;;;;;485119;244;29285;-73
2023/08/26 05:07:52;;;;;;;6.90;3.00;;;17.20;99.90;;;;;;485014;245;28709;-74
2023/08/26 05:09:53;;;;;;;6.60;3.17;;;17.20;99.90;;;;;;485091;243;28780;-76
2023/08/26 05:11:57;;;;;;;3.63;2.83;;;17.20;99.90;;;;;;485106;244;28712;-75
2023/08/26 05:13:56;;;;;;;3.87;2.87;;;17.20;99.90;;;;;;485015;244;28713;-74
2023/08/26 05:15:57;;;;;;;6.80;2.90;;;17.30;99.90;;;;;;485012;245;28796;-74
2023/08/26 05:17:58;;;;;;;6.33;3.10;;;17.20;99.90;;;;;;485103;244;28714;-75
2023/08/26 05:20:00;;;;;;;4.00;3.13;;;17.20;99.90;;;;;;485092;243;28698;-75
2023/08/26 05:22:02;;;;;;;6.43;2.80;;;17.20;99.90;;;;;;485104;244;28802;-74
2023/08/26 05:24:03;;;;;;;5.87;2.63;;;17.20;99.90;;;;;;485057;244;28718;-75
2023/08/26 05:26:03;;;;;;;2.70;2.50;;;17.20;99.90;;;;;;485088;244;29166;-74
2023/08/26 05:28:05;;;;;;;4.13;2.77;;;17.20;99.90;;;;;;485097;244;29165;-74
2023/08/26 05:30:06;;;;;;;5.10;2.50;;;17.20;99.90;;;;;;485111;244;29154;-73
2023/08/26 05:32:07;;;;;;;5.03;2.60;;;17.30;99.90;;;;;;485117;244;28780;-75
2023/08/26 05:34:09;;;;;;;4.00;2.07;;;17.20;99.90;;;;;;485108;243;28698;-74
2023/08/26 05:36:11;;;;;;;6.53;2.23;;;17.20;99.90;;;;;;485099;243;28709;-75
2023/08/26 05:38:12;;;;;;;2.80;2.10;;;17.20;99.90;;;;;;485115;244;28789;-74
2023/08/26 05:40:13;;;;;;;4.70;2.23;;;17.10;99.90;;;;;;485103;244;28704;-74
2023/08/26 05:42:14;;;;;;;4.23;2.17;;;17.10;99.90;;;;;;485094;243;28702;-74
2023/08/26 05:44:16;;;;;;;5.07;2.30;;;17.10;99.90;;;;;;485102;244;28713;-74
2023/08/26 05:46:17;;;;;;;4.80;2.40;;;17.10;99.90;;;;;;485087;244;28772;-74
2023/08/26 05:48:18;;;;;;;3.93;2.20;;;17.10;99.90;;;;;;485105;244;28718;-75
2023/08/26 05:50:19;;;;;;;7.17;2.57;;;17.10;99.90;;;;;;485043;244;28831;-75
2023/08/26 05:52:21;;;;;;;5.97;2.47;;;17.20;99.90;;;;;;485089;244;29185;-74
2023/08/26 05:54:22;;;;;;;3.73;2.27;;;17.20;99.90;;;;;;485098;244;29272;-74
2023/08/26 05:56:23;;;;;;;5.70;2.37;;;17.30;99.90;;;;;;485104;244;29184;-74
2023/08/26 05:58:24;;;;;;;5.63;2.47;;;17.40;99.90;;;;;;485093;244;28727;-74
2023/08/26 06:00:26;;;;;;;4.63;2.23;;;17.60;99.90;;;;;;485088;244;28792;-75
2023/08/26 06:02:27;;;;;;;5.60;2.70;;;17.60;99.90;;;;;;485045;243;28814;-75
2023/08/26 06:04:28;;;;;;;5.73;2.30;;;17.70;99.90;;;;;;485351;242;28724;-74
2023/08/26 06:06:29;;;;;;;2.30;1.90;;;17.80;99.90;;;;;;485084;244;28784;-75
2023/08/26 06:08:31;;;;;;;3.20;2.23;;;17.90;99.90;;;;;;485099;244;28733;-75
2023/08/26 06:10:32;;;;;;;3.83;2.90;;;17.80;99.90;;;;;;485088;244;28720;-74
2023/08/26 06:12:33;;;;;;;2.27;2.07;;;17.90;99.90;;;;;;485097;244;28792;-74
2023/08/26 06:14:34;;;;;;;5.40;2.47;;;17.90;99.90;;;;;;485054;243;28818;-75
2023/08/26 06:16:36;;;;;;;2.37;2.17;;;17.90;99.90;;;;;;485082;244;29284;-75
2023/08/26 06:18:37;;;;;;;2.40;2.20;;;17.80;99.90;;;;;;485100;244;29274;-75
2023/08/26 06:20:38;;;;;;;4.80;2.23;;;17.80;99.90;;;;;;485101;243;29170;-74
2023/08/26 06:22:41;;;;;;;4.83;2.20;;;17.80;99.90;;;;;;485145;244;28707;-75
2023/08/26 06:24:41;;;;;;;3.20;2.17;;;17.90;99.90;;;;;;485008;244;28811;-75
2023/08/26 06:26:42;;;;;;;3.53;2.10;;;17.90;99.90;;;;;;485107;244;28713;-76
2023/08/26 06:28:43;;;;;;;2.63;2.33;;;17.90;99.90;;;;;;485088;244;28805;-75
2023/08/26 06:30:44;;;;;;;2.23;2.03;;;17.90;99.90;;;;;;485055;243;28700;-75
2023/08/26 06:32:46;;;;;;;5.70;2.40;;;18.00;99.90;;;;;;485088;244;28790;-75
2023/08/26 06:34:47;;;;;;;2.30;2.10;;;18.00;99.90;;;;;;485113;244;28797;-74
2023/08/26 06:36:48;;;;;;;3.97;2.30;;;18.00;99.90;;;;;;485098;244;28795;-75
2023/08/26 06:38:49;;;;;;;2.40;2.13;;;17.90;99.90;;;;;;485090;244;28713;-74
2023/08/26 06:40:51;;;;;;;3.27;1.93;;;18.00;99.90;;;;;;485100;244;29164;-76
2023/08/26 06:42:52;;;;;;;4.97;3.20;;;18.10;99.90;;;;;;485088;243;29217;-73
2023/08/26 06:44:54;;;;;;;7.20;2.40;;;18.20;99.90;;;;;;485081;244;29287;-75
2023/08/26 06:46:54;;;;;;;5.07;2.60;;;18.20;99.90;;;;;;485061;245;29273;-74
2023/08/26 06:48:56;;;;;;;2.27;2.07;;;18.30;99.90;;;;;;485101;244;28781;-75
2023/08/26 06:50:57;;;;;;;3.37;2.40;;;18.40;99.90;;;;;;485107;244;28708;-75
2023/08/26 06:52:58;;;;;;;3.53;2.47;;;18.30;99.90;;;;;;485091;244;28777;-74
2023/08/26 06:54:59;;;;;;;3.60;2.27;;;18.30;99.90;;;;;;484967;245;28797;-74
2023/08/26 06:57:01;;;;;;;5.27;2.30;;;18.40;99.90;;;;;;485085;243;28745;-75
2023/08/26 06:59:02;;;;;;;5.50;2.43;;;18.40;99.90;;;;;;485091;244;28767;-75
2023/08/26 07:01:03;;;;;;;3.63;2.30;;;18.30;99.90;;;;;;485085;244;28722;-74
2023/08/26 07:03:04;;;;;;;2.33;2.13;;;18.00;99.90;;;;;;485068;243;28698;-74
2023/08/26 07:05:06;;;;;;;2.40;2.17;;;17.80;99.90;;;;;;484982;245;29150;-75
2023/08/26 07:07:07;;;;;;;2.17;1.97;;;17.60;99.90;;;;;;485088;243;29175;-78
2023/08/26 07:09:10;;;;;;;2.37;1.90;;;17.50;99.90;;;;;;485121;244;29183;-76
2023/08/26 07:11:09;;;;;;;2.63;2.07;;;17.40;99.90;;;;;;485011;245;29284;-74
2023/08/26 07:13:11;;;;;;;2.00;1.90;;;17.30;99.90;;;;;;485134;243;28717;-76
2023/08/26 07:15:12;;;;;;;6.03;2.40;;;17.30;99.90;;;;;;485135;244;28779;-74
2023/08/26 07:17:15;;;;;;;3.90;2.20;;;17.30;99.90;;;;;;485109;244;28706;-75
2023/08/26 07:19:14;;;;;;;2.23;1.73;;;17.30;99.90;;;;;;484980;245;28719;-75
2023/08/26 07:21:16;;;;;;;7.47;2.07;;;17.30;99.90;;;;;;485103;244;28810;-75
2023/08/26 07:23:17;;;;;;;3.97;2.10;;;17.40;99.90;;;;;;485064;245;28702;-74
2023/08/26 07:25:18;;;;;;;4.20;2.00;;;17.40;99.90;;;;;;485102;244;28709;-75
2023/08/26 07:27:19;;;;;;;2.20;1.93;;;17.30;99.90;;;;;;485100;243;28697;-75
2023/08/26 07:29:21;;;;;;;5.43;1.90;;;17.30;99.90;;;;;;485124;244;28719;-75
2023/08/26 07:31:22;;;;;;;5.60;1.77;;;17.30;99.90;;;;;;485122;244;29273;-75
2023/08/26 07:33:23;;;;;;;4.00;1.93;;;17.30;99.90;;;;;;485108;243;29161;-74
2023/08/26 07:35:24;;;;;;;2.10;1.90;;;17.30;99.90;;;;;;485107;244;29139;-74
2023/08/26 07:37:26;;;;;;;2.27;1.83;;;17.40;99.90;;;;;;485098;244;28695;-74
2023/08/26 07:39:27;;;;;;;2.30;1.57;;;17.50;99.90;;;;;;485094;243;28720;-75
2023/08/26 07:41:28;;;;;;;2.43;1.73;;;17.50;99.90;;;;;;485100;244;28739;-75
2023/08/26 07:43:30;;;;;;;3.33;1.70;;;17.60;99.90;;;;;;485119;244;28724;-76
2023/08/26 07:45:31;;;;;;;2.93;1.60;;;17.60;99.90;;;;;;485106;244;28707;-76
2023/08/26 07:47:32;;;;;;;2.90;1.83;;;17.70;99.90;;;;;;485102;244;28699;-73
2023/08/26 07:49:33;;;;;;;2.73;1.90;;;17.50;99.90;;;;;;485111;244;28698;-75
2023/08/26 07:51:34;;;;;;;2.50;1.90;;;17.50;99.90;;;;;;485109;243;28697;-74
2023/08/26 07:53:36;;;;;;;1.60;1.50;;;17.50;99.90;;;;;;485105;244;28716;-75
2023/08/26 07:55:37;;;;;;;3.87;1.90;;;17.50;99.90;;;;;;485106;244;29270;-78
2023/08/26 07:57:38;;;;;;;2.60;1.90;;;17.60;99.90;;;;;;485105;244;29262;-75
2023/08/26 07:59:39;;;;;;;4.20;1.73;;;17.50;99.90;;;;;;485096;244;29183;-75
2023/08/26 08:01:41;;;;;;;2.33;1.90;;;17.60;99.90;;;;;;485106;244;29235;-74
2023/08/26 08:03:42;;;;;;;1.40;1.30;;;17.50;99.90;;;;;;485069;243;28680;-75
2023/08/26 08:05:43;;;;;;;1.70;1.40;;;17.50;99.90;;;;;;485090;244;28793;-76
2023/08/26 08:07:45;;;;;;;1.93;1.40;;;17.50;99.90;;;;;;485145;243;28721;-74
2023/08/26 08:09:46;;;;;;;3.93;1.90;;;17.60;99.90;;;;;;485137;244;28714;-74
2023/08/26 08:11:47;;;;;;;2.10;1.90;;;17.60;99.90;;;;;;485101;244;28702;-73
2023/08/26 08:13:48;;;;;;;4.83;1.70;;;17.80;99.90;;;;;;485097;243;28691;-74
2023/08/26 08:15:50;;;;;;;2.23;1.90;;;17.80;99.90;;;;;;485115;244;28789;-75
2023/08/26 08:17:51;;;;;;;2.07;1.87;;;17.90;99.90;;;;;;485089;244;28805;-74
2023/08/26 08:19:52;;;;;;;3.30;1.80;;;18.00;99.90;;;;;;485102;244;28794;-74
2023/08/26 08:21:53;;;;;;;2.80;2.20;;;18.00;99.90;;;;;;485112;244;29246;-74
2023/08/26 08:23:55;;;;;;;1.77;1.60;;;18.00;99.90;;;;;;485089;243;29232;-74
2023/08/26 08:25:56;;;;;;;2.30;1.80;;;18.00;99.90;;;;;;485107;244;29144;-76
2023/08/26 08:27:57;;;;;;;2.27;2.00;;;18.00;99.90;;;;;;485108;244;28824;-73
2023/08/26 08:29:59;;;;;;;3.73;1.73;;;18.00;99.90;;;;;;485111;244;28692;-73
2023/08/26 08:32:00;;;;;;;3.30;1.73;;;18.10;99.90;;;;;;484992;245;28702;-74
2023/08/26 08:34:01;;;;;;;2.70;1.60;;;18.00;99.90;;;;;;485100;243;28797;-75
2023/08/26 08:36:03;;;;;;;2.10;1.60;;;18.10;99.90;;;;;;485100;244;28767;-75
2023/08/26 08:38:03;;;;;;;2.70;1.70;;;18.20;99.90;;;;;;485070;244;28692;-75
2023/08/26 08:40:05;;;;;;;2.80;1.60;;;18.40;99.90;;;;;;485106;244;28709;-75
2023/08/26 08:42:06;;;;;;;2.10;1.90;;;18.50;99.90;;;;;;485010;245;28700;-74
2023/08/26 08:44:07;;;;;;;2.37;1.63;;;18.70;99.90;;;;;;485115;243;28791;-74
2023/08/26 08:46:08;;;;;;;1.70;1.60;;;18.90;99.90;;;;;;485096;244;29189;-74
2023/08/26 08:48:10;;;;;;;2.37;1.70;;;19.10;99.90;;;;;;485098;244;29155;-75
2023/08/26 08:50:11;;;;;;;1.57;1.30;;;19.40;99.90;;;;;;485104;244;29158;-76
2023/08/26 08:52:12;;;;;;;2.33;2.00;;;19.50;99.90;;;;;;485095;243;29248;-74
2023/08/26 08:54:13;;;;;;;1.97;1.77;;;19.70;99.90;;;;;;485098;244;28785;-74
2023/08/26 08:56:15;;;;;;;4.50;2.03;;;19.70;99.90;;;;;;485081;245;28778;-78
2023/08/26 08:58:16;;;;;;;4.00;2.13;;;19.90;99.90;;;;;;485098;243;28701;-74
2023/08/26 09:00:17;;;;;;;1.70;1.57;;;20.00;99.90;;;;;;484991;245;28705;-75
2023/08/26 09:02:18;;;;;;;2.67;2.17;;;19.90;99.90;;;;;;485096;245;28699;-74
2023/08/26 09:04:20;;;;;;;2.87;1.77;;;19.90;99.90;;;;;;485085;244;28802;-75
2023/08/26 09:06:21;;;;;;;2.33;1.90;;;20.00;99.90;;;;;;484973;245;28716;-76
2023/08/26 09:08:22;;;;;;;2.30;1.70;;;20.10;99.90;;;;;;485085;244;28711;-74
2023/08/26 09:10:25;;;;;;;1.87;1.67;;;19.80;99.90;;;;;;485022;244;29261;-75
2023/08/26 09:12:25;;;;;;;3.57;1.67;;;19.80;99.90;;;;;;485015;244;29188;-75
2023/08/26 09:14:26;;;;;;;3.00;1.47;;;20.10;99.90;;;;;;485102;244;29287;-74
2023/08/26 09:16:27;;;;;;;1.73;1.43;;;20.10;99.90;;;;;;485075;244;28728;-75
2023/08/26 09:18:28;;;;;;;1.93;1.50;;;20.20;99.90;;;;;;485093;244;28699;-74
2023/08/26 09:20:30;;;;;;;1.70;1.60;;;20.40;99.90;;;;;;485085;244;28710;-75
2023/08/26 09:22:31;;;;;;;2.70;1.40;;;20.40;99.90;;;;;;485080;244;28699;-74
2023/08/26 09:24:32;;;;;;;1.40;1.30;;;20.30;99.90;;;;;;485066;244;28706;-75
2023/08/26 09:26:33;;;;;;;4.63;1.73;;;20.30;99.90;;;;;;485078;243;28716;-74
2023/08/26 09:28:35;;;;;;;1.40;1.30;;;20.40;99.90;;;;;;485083;244;28773;-74
2023/08/26 09:30:36;;;;;;;3.90;1.50;;;20.40;99.90;;;;;;485080;244;28716;-74
2023/08/26 09:32:37;;;;;;;1.63;1.33;;;20.40;99.90;;;;;;485070;243;28819;-74
2023/08/26 09:34:38;;;;;;;1.83;1.30;;;20.60;99.90;;;;;;485064;243;29169;-74
2023/08/26 09:36:40;;;;;;;2.40;1.70;;;20.80;99.90;;;;;;485080;244;29166;-74
2023/08/26 09:38:41;;;;;;;1.70;1.30;;;20.60;99.90;;;;;;485065;244;29182;-74
2023/08/26 09:40:42;;;;;;;1.43;1.33;;;20.50;99.90;;;;;;485084;244;29177;-75
2023/08/26 09:42:44;;;;;;;2.50;1.70;;;20.40;99.90;;;;;;485055;243;28694;-74
2023/08/26 09:44:45;;;;;;;2.50;1.40;;;20.30;99.90;;;;;;485065;244;28699;-74
2023/08/26 09:46:46;;;;;;;3.07;1.50;;;20.00;99.90;;;;;;485102;243;28793;-74
2023/08/26 09:48:47;;;;;;;1.53;1.27;;;19.80;99.90;;;;;;485097;244;28781;-75
2023/08/26 09:50:48;;;;;;;2.40;1.67;;;19.80;99.90;;;;;;485088;244;28801;-75
2023/08/26 09:52:50;;;;;;;1.63;1.30;;;19.80;99.90;;;;;;485071;244;28699;-75
2023/08/26 09:54:51;;;;;;;1.80;1.40;;;19.90;99.90;;;;;;485072;243;28783;-74
2023/08/26 09:56:53;;;;;;;1.67;1.37;;;19.90;99.90;;;;;;485091;244;28694;-74
2023/08/26 09:58:54;;;;;;;3.30;1.50;;;19.80;99.90;;;;;;485083;243;28710;-74
2023/08/26 10:00:56;;;;;;;2.80;1.53;;;19.80;99.90;;;;;;485086;244;28780;-74
2023/08/26 10:02:57;;;;;;;1.77;1.63;;;19.70;99.90;;;;;;485095;244;28786;-74
2023/08/26 10:04:58;;;;;;;3.53;1.70;;;19.70;99.90;;;;;;485075;244;28719;-74
2023/08/26 10:06:59;;;;;;;2.73;1.50;;;20.00;99.90;;;;;;485088;244;29260;-75
2023/08/26 10:09:05;;;;;;;1.60;1.50;;;20.30;99.90;;;;;;487995;242;29301;-75
2023/08/26 10:11:05;;;;;;;6.83;1.80;;;20.40;99.90;;;;;;491248;240;28715;-74
2023/08/26 10:13:06;;;;;;;2.13;1.40;;;20.60;99.90;;;;;;491151;242;28716;-75
2023/08/26 10:15:08;;;;;;;1.70;1.60;;;20.70;99.90;;;;;;491153;242;28791;-75
2023/08/26 10:17:09;;;;;;;2.77;1.40;;;20.70;99.90;;;;;;491150;242;28700;-74
2023/08/26 10:19:10;;;;;;;3.33;1.47;;;20.60;99.90;;;;;;491160;242;29235;-74
2023/08/26 10:21:11;;;;;;;3.30;1.97;;;20.50;99.90;;;;;;491159;242;29174;-74
2023/08/26 10:23:12;;;;;;;2.10;1.90;;;20.50;99.90;;;;;;491162;242;29259;-75
2023/08/26 10:25:14;;;;;;;2.30;1.50;;;20.70;99.90;;;;;;491135;242;29160;-75
2023/08/26 10:27:15;;;;;;;2.40;1.70;;;20.80;99.90;;;;;;491156;242;28779;-75
2023/08/26 10:29:16;;;;;;;3.30;1.70;;;20.70;99.90;;;;;;491154;242;28707;-74